CLX5487 ZHCC-PANC

Flight info

Callsign CLX5487
Flight time 8h 4m
Altitude 31100
Route OKT9W OKTOX W56 VADMO W4 WXI W59 SUNOK W103 YQG W569 NOBUP W4 IKEKA A591 AGAVO/N0495F330 Y644 EGOBA Y697 KAE Y437 TENAS L512 GTC Y512 OATIS R580 OPHET/M085F350 R580 ONEIL G469 PINTT A590 HAMND NEELL7
Aircraft B744/H-SDE2E3FGHIJ4J5M1P2RWXYZ/LB2D1

Departure

Time 2026-04-12 13:49
Airport Zhengzhou Xinzheng International Airport (ZHCC)

Arrival

Time 2026-04-12 21:53
Airport Ted Stevens Anchorage International Airport (PANC)
Time Latitude Longitude Altitude Speed Heading
2026-04-12 12:31 34.52970 113.82438 508 ft 0 kts 22°
2026-04-12 13:24 34.52962 113.82434 508 ft 2 kts 22°
2026-04-12 13:24 34.52950 113.82428 508 ft 2 kts 22°
2026-04-12 13:25 34.52939 113.82423 508 ft 2 kts 23°
2026-04-12 13:25 34.52928 113.82417 508 ft 2 kts 24°
2026-04-12 13:25 34.52917 113.82410 508 ft 2 kts 34°
2026-04-12 13:25 34.52909 113.82402 508 ft 1 kts 52°
2026-04-12 13:26 34.52904 113.82391 508 ft 2 kts 72°
2026-04-12 13:26 34.52902 113.82378 508 ft 2 kts 92°
2026-04-12 13:26 34.52904 113.82362 508 ft 2 kts 104°
2026-04-12 13:26 34.52908 113.82345 508 ft 2 kts 107°
2026-04-12 13:27 34.52913 113.82327 508 ft 2 kts 109°
2026-04-12 13:27 34.52919 113.82308 508 ft 2 kts 111°
2026-04-12 13:27 34.52919 113.82306 508 ft 2 kts 112°
2026-04-12 13:27 34.52913 113.82326 508 ft 3 kts 112°
2026-04-12 13:28 34.52908 113.82340 508 ft 3 kts 112°
2026-04-12 13:28 34.52898 113.82367 508 ft 3 kts 112°
2026-04-12 13:28 34.52893 113.82384 508 ft 1 kts 112°
2026-04-12 13:28 34.52892 113.82385 508 ft 0 kts 112°
2026-04-12 13:33 34.52891 113.82389 508 ft 2 kts 112°
2026-04-12 13:33 34.52877 113.82429 508 ft 8 kts 112°
2026-04-12 13:33 34.52853 113.82501 508 ft 9 kts 112°
2026-04-12 13:33 34.52828 113.82573 508 ft 9 kts 112°
2026-04-12 13:34 34.52805 113.82642 508 ft 9 kts 112°
2026-04-12 13:34 34.52782 113.82709 508 ft 8 kts 112°
2026-04-12 13:34 34.52754 113.82755 508 ft 7 kts 158°
2026-04-12 13:34 34.52709 113.82751 508 ft 7 kts 197°
2026-04-12 13:35 34.52666 113.82732 508 ft 6 kts 201°
2026-04-12 13:35 34.52625 113.82713 508 ft 6 kts 195°
2026-04-12 13:35 34.52588 113.82731 508 ft 6 kts 125°
2026-04-12 13:35 34.52564 113.82794 508 ft 11 kts 113°
2026-04-12 13:36 34.52526 113.82903 508 ft 17 kts 112°
2026-04-12 13:36 34.52476 113.83050 508 ft 21 kts 112°
2026-04-12 13:36 34.52418 113.83219 508 ft 22 kts 112°
2026-04-12 13:36 34.52363 113.83383 508 ft 21 kts 112°
2026-04-12 13:37 34.52309 113.83539 508 ft 20 kts 112°
2026-04-12 13:37 34.52259 113.83688 508 ft 19 kts 112°
2026-04-12 13:37 34.52210 113.83830 508 ft 18 kts 112°
2026-04-12 13:37 34.52164 113.83966 508 ft 17 kts 112°
2026-04-12 13:38 34.52112 113.84117 508 ft 21 kts 112°
2026-04-12 13:38 34.52059 113.84274 508 ft 20 kts 112°
2026-04-12 13:38 34.52008 113.84423 508 ft 19 kts 112°
2026-04-12 13:38 34.51960 113.84565 508 ft 18 kts 112°
2026-04-12 13:39 34.51914 113.84700 508 ft 17 kts 112°
2026-04-12 13:39 34.51870 113.84827 508 ft 16 kts 112°
2026-04-12 13:39 34.51829 113.84947 508 ft 15 kts 112°
2026-04-12 13:39 34.51792 113.85055 508 ft 10 kts 112°
2026-04-12 13:40 34.51778 113.85121 508 ft 8 kts 77°
2026-04-12 13:40 34.51821 113.85161 508 ft 11 kts 22°
2026-04-12 13:40 34.51916 113.85209 508 ft 19 kts 22°
2026-04-12 13:40 34.52054 113.85278 508 ft 22 kts 22°
2026-04-12 13:41 34.52191 113.85347 508 ft 21 kts 22°
2026-04-12 13:41 34.52321 113.85411 508 ft 20 kts 22°
2026-04-12 13:41 34.52445 113.85474 508 ft 19 kts 22°
2026-04-12 13:41 34.52563 113.85533 508 ft 18 kts 22°
2026-04-12 13:42 34.52675 113.85589 508 ft 17 kts 22°
2026-04-12 13:42 34.52781 113.85642 508 ft 16 kts 22°
2026-04-12 13:42 34.52880 113.85692 508 ft 15 kts 22°
2026-04-12 13:42 34.52974 113.85739 508 ft 14 kts 22°
2026-04-12 13:43 34.53048 113.85774 508 ft 9 kts 13°
2026-04-12 13:43 34.53099 113.85741 508 ft 9 kts 297°
2026-04-12 13:43 34.53134 113.85642 508 ft 17 kts 292°
2026-04-12 13:43 34.53187 113.85487 508 ft 23 kts 292°
2026-04-12 13:44 34.53246 113.85313 508 ft 22 kts 292°
2026-04-12 13:44 34.53304 113.85145 508 ft 21 kts 292°
2026-04-12 13:44 34.53358 113.84985 508 ft 20 kts 292°
2026-04-12 13:44 34.53409 113.84834 508 ft 19 kts 292°
2026-04-12 13:45 34.53459 113.84689 508 ft 18 kts 292°
2026-04-12 13:45 34.53505 113.84552 508 ft 17 kts 292°
2026-04-12 13:45 34.53550 113.84422 508 ft 16 kts 292°
2026-04-12 13:45 34.53591 113.84300 508 ft 15 kts 292°
2026-04-12 13:46 34.53631 113.84185 508 ft 14 kts 292°
2026-04-12 13:46 34.53668 113.84077 508 ft 13 kts 292°
2026-04-12 13:46 34.53699 113.83991 508 ft 9 kts 307°
2026-04-12 13:46 34.53753 113.83976 508 ft 8 kts 15°
2026-04-12 13:47 34.53807 113.84000 508 ft 8 kts 22°
2026-04-12 13:47 34.53857 113.84026 508 ft 8 kts 22°
2026-04-12 13:47 34.53905 113.84049 508 ft 7 kts 22°
2026-04-12 13:47 34.53939 113.84072 508 ft 5 kts 59°
2026-04-12 13:48 34.53935 113.84114 508 ft 9 kts 112°
2026-04-12 13:48 34.53861 113.84329 508 ft 56 kts 112°
2026-04-12 13:48 34.53627 113.85020 508 ft 121 kts 112°
2026-04-12 13:48 34.53231 113.86185 516 ft 175 kts 112°
2026-04-12 13:49 34.52754 113.87584 1082 ft 179 kts 113°
2026-04-12 13:49 34.52286 113.88993 1829 ft 183 kts 112°
2026-04-12 13:49 34.51821 113.90427 2462 ft 182 kts 112°
2026-04-12 13:49 34.51366 113.91846 3104 ft 181 kts 112°
2026-04-12 13:50 34.50881 113.93299 3477 ft 194 kts 113°
2026-04-12 13:50 34.50338 113.94886 3564 ft 213 kts 113°
2026-04-12 13:50 34.49741 113.96612 3632 ft 232 kts 113°
2026-04-12 13:50 34.49079 113.98512 3724 ft 252 kts 113°
2026-04-12 13:51 34.48369 114.00544 3834 ft 272 kts 113°
2026-04-12 13:51 34.47606 114.02730 3966 ft 293 kts 113°
2026-04-12 13:51 34.46802 114.05096 4118 ft 316 kts 110°
2026-04-12 13:51 34.46212 114.07753 4338 ft 339 kts 102°
2026-04-12 13:52 34.45857 114.10677 4476 ft 365 kts 97°
2026-04-12 13:52 34.45585 114.13793 4963 ft 377 kts 97°
2026-04-12 13:52 34.45296 114.16980 5706 ft 383 kts 96°
2026-04-12 13:52 34.44999 114.20198 6481 ft 387 kts 97°
2026-04-12 13:53 34.44664 114.23438 7322 ft 389 kts 97°
2026-04-12 13:53 34.44573 114.26719 7989 ft 395 kts 83°
2026-04-12 13:53 34.45348 114.29918 8643 ft 401 kts 65°
2026-04-12 13:53 34.46976 114.32718 9317 ft 407 kts 47°
2026-04-12 13:54 34.49166 114.34918 10042 ft 412 kts 38°
2026-04-12 13:54 34.51553 114.36878 10721 ft 417 kts 35°
2026-04-12 13:54 34.54005 114.38764 11430 ft 420 kts 34°
2026-04-12 13:54 34.56488 114.40653 12132 ft 423 kts 34°
2026-04-12 13:55 34.58993 114.42555 12745 ft 428 kts 34°
2026-04-12 13:55 34.61527 114.44502 13282 ft 435 kts 34°
2026-04-12 13:55 34.64082 114.46494 13830 ft 440 kts 34°
2026-04-12 13:55 34.66662 114.48534 14382 ft 445 kts 34°
2026-04-12 13:56 34.69260 114.50615 14922 ft 450 kts 34°
2026-04-12 13:56 34.71873 114.52732 15486 ft 454 kts 34°
2026-04-12 13:56 34.74499 114.54888 16024 ft 459 kts 34°
2026-04-12 13:56 34.77239 114.56897 16488 ft 463 kts 26°
2026-04-12 13:57 34.80280 114.58368 16944 ft 467 kts 16°
2026-04-12 13:57 34.83409 114.59248 17458 ft 469 kts
2026-04-12 13:57 34.86689 114.59813 17958 ft 472 kts
2026-04-12 13:57 34.89966 114.60171 18413 ft 476 kts
2026-04-12 13:58 34.93271 114.60437 18899 ft 479 kts
2026-04-12 13:58 34.96606 114.60712 19374 ft 482 kts
2026-04-12 13:58 34.99951 114.61015 19856 ft 485 kts
2026-04-12 13:58 35.03321 114.61338 20289 ft 488 kts
2026-04-12 13:59 35.06717 114.61673 20731 ft 492 kts
2026-04-12 13:59 35.10128 114.62015 21153 ft 495 kts
2026-04-12 13:59 35.13567 114.62363 21575 ft 498 kts
2026-04-12 13:59 35.17027 114.62712 21989 ft 501 kts
2026-04-12 14:00 35.19370 114.62950 22241 ft 503 kts
2026-04-12 14:00 35.24002 114.63422 22765 ft 507 kts
2026-04-12 14:00 35.27565 114.63786 23144 ft 510 kts
2026-04-12 14:00 35.31109 114.64015 23511 ft 511 kts 358°
2026-04-12 14:01 35.34656 114.63868 23858 ft 513 kts 355°
2026-04-12 14:01 35.38224 114.63586 24182 ft 515 kts 354°
2026-04-12 14:01 35.41798 114.63284 24538 ft 517 kts 354°
2026-04-12 14:01 35.45388 114.62919 24874 ft 519 kts 352°
2026-04-12 14:02 35.48970 114.62484 25309 ft 518 kts 352°
2026-04-12 14:02 35.52552 114.62057 25828 ft 516 kts 352°
2026-04-12 14:02 35.56110 114.61643 26342 ft 514 kts 352°
2026-04-12 14:02 35.59666 114.61242 26797 ft 513 kts 352°
2026-04-12 14:03 35.63213 114.60852 27267 ft 511 kts 352°
2026-04-12 14:03 35.66738 114.60476 27746 ft 509 kts 352°
2026-04-12 14:03 35.70308 114.60107 28186 ft 508 kts 352°
2026-04-12 14:03 35.73823 114.59754 28612 ft 506 kts 352°
2026-04-12 14:04 35.77319 114.59412 29002 ft 505 kts 352°
2026-04-12 14:04 35.80814 114.59081 29419 ft 503 kts 352°
2026-04-12 14:04 35.84313 114.58886 29727 ft 507 kts 359°
2026-04-12 14:04 35.87805 114.59567 30050 ft 512 kts
2026-04-12 14:05 35.91234 114.60737 30397 ft 513 kts 13°
2026-04-12 14:05 35.94637 114.62044 30646 ft 514 kts 14°
2026-04-12 14:05 36.01175 114.65590 31081 ft 523 kts 33°
2026-04-12 14:06 36.06502 114.71702 31097 ft 524 kts 44°
2026-04-12 14:06 36.11405 114.78476 31094 ft 527 kts 47°
2026-04-12 14:07 36.16110 114.85415 31094 ft 528 kts 48°
2026-04-12 14:07 36.20800 114.92380 31094 ft 527 kts 48°
2026-04-12 14:08 36.25485 114.99335 31094 ft 527 kts 47°
2026-04-12 14:08 36.29399 115.05106 31094 ft 527 kts 48°
2026-04-12 14:09 36.34860 115.13260 31094 ft 527 kts 48°
2026-04-12 14:09 36.39526 115.20247 31094 ft 527 kts 48°
2026-04-12 14:10 36.43443 115.26114 31094 ft 527 kts 48°
2026-04-12 14:10 36.47293 115.33852 31107 ft 530 kts 62°
2026-04-12 14:11 36.50280 115.42219 31103 ft 532 kts 66°
2026-04-12 14:11 36.53219 115.50649 31103 ft 533 kts 65°
2026-04-12 14:12 36.56191 115.59082 31103 ft 533 kts 65°
2026-04-12 14:12 36.59169 115.67565 31103 ft 533 kts 65°
2026-04-12 14:13 36.62128 115.76002 31104 ft 532 kts 65°
2026-04-12 14:13 36.65082 115.84437 31104 ft 532 kts 65°
2026-04-12 14:14 36.68036 115.92869 31105 ft 532 kts 64°
2026-04-12 14:14 36.71120 116.01240 31105 ft 532 kts 62°
2026-04-12 14:15 36.74453 116.09451 31106 ft 532 kts 61°
2026-04-12 14:15 36.77814 116.17717 31105 ft 531 kts 61°
2026-04-12 14:16 36.81158 116.25925 31106 ft 531 kts 61°
2026-04-12 14:16 36.84505 116.34129 31106 ft 532 kts 61°
2026-04-12 14:17 36.88248 116.42050 31109 ft 531 kts 54°
2026-04-12 14:17 36.92416 116.49644 31107 ft 530 kts 53°
2026-04-12 14:18 36.96593 116.57220 31108 ft 530 kts 53°
2026-04-12 14:18 37.00649 116.64909 31109 ft 531 kts 57°
2026-04-12 14:19 37.04117 116.73134 31107 ft 533 kts 63°
2026-04-12 14:19 37.07096 116.81637 31110 ft 534 kts 65°
2026-04-12 14:20 37.10055 116.90158 31109 ft 535 kts 65°
2026-04-12 14:20 37.12468 116.98955 31109 ft 536 kts 73°
2026-04-12 14:21 37.14352 117.07977 31111 ft 536 kts 75°
2026-04-12 14:21 37.16271 117.16999 31111 ft 536 kts 74°
2026-04-12 14:22 37.18244 117.26066 31112 ft 536 kts 73°
2026-04-12 14:22 37.20208 117.35068 31113 ft 536 kts 73°
2026-04-12 14:23 37.22169 117.44074 31128 ft 537 kts 74°
2026-04-12 14:23 37.24127 117.53100 31130 ft 537 kts 74°
2026-04-12 14:24 37.26080 117.62136 31131 ft 537 kts 74°
2026-04-12 14:24 37.28024 117.71165 31131 ft 537 kts 74°
2026-04-12 14:25 37.29963 117.80212 31132 ft 537 kts 74°
2026-04-12 14:25 37.31933 117.89304 31132 ft 537 kts 74°
2026-04-12 14:26 37.33862 117.98354 31134 ft 538 kts 74°
2026-04-12 14:26 37.35770 118.07435 31135 ft 538 kts 74°
2026-04-12 14:27 37.37673 118.16520 31136 ft 538 kts 74°
2026-04-12 14:27 37.39624 118.25583 31137 ft 538 kts 73°
2026-04-12 14:28 37.41613 118.34630 31138 ft 538 kts 73°
2026-04-12 14:28 37.43613 118.43752 31140 ft 538 kts 73°
2026-04-12 14:29 37.45598 118.52802 31142 ft 538 kts 73°
2026-04-12 14:29 37.47588 118.61862 31143 ft 538 kts 73°
2026-04-12 14:30 37.49583 118.70918 31144 ft 538 kts 72°
2026-04-12 14:30 37.51995 118.79807 31146 ft 537 kts 68°
2026-04-12 14:31 37.54567 118.88622 31147 ft 537 kts 68°
2026-04-12 14:31 37.57154 118.97493 31149 ft 537 kts 68°
2026-04-12 14:32 37.59728 119.06308 31150 ft 537 kts 68°
2026-04-12 14:32 37.62249 119.15151 31143 ft 537 kts 73°
2026-04-12 14:33 37.63570 119.24410 31154 ft 538 kts 81°
2026-04-12 14:33 37.64188 119.33791 31159 ft 540 kts 88°
2026-04-12 14:34 37.64356 119.43254 31155 ft 540 kts 89°
2026-04-12 14:34 37.64482 119.52770 31157 ft 540 kts 89°
2026-04-12 14:35 37.64605 119.62221 31159 ft 539 kts 89°
2026-04-12 14:35 37.64723 119.71672 31159 ft 539 kts 89°
2026-04-12 14:36 37.64833 119.81118 31162 ft 539 kts 89°
2026-04-12 14:36 37.64936 119.90560 31163 ft 539 kts 89°
2026-04-12 14:37 37.65032 120.00010 31164 ft 539 kts 89°
2026-04-12 14:37 37.65121 120.09485 31165 ft 539 kts 89°
2026-04-12 14:38 37.65242 120.18932 31166 ft 539 kts 89°
2026-04-12 14:38 37.65333 120.28357 31167 ft 538 kts 89°
2026-04-12 14:39 37.65393 120.37851 31170 ft 539 kts 89°
2026-04-12 14:39 37.65158 120.47295 31168 ft 539 kts 98°
2026-04-12 14:40 37.63025 120.56263 31177 ft 536 kts 118°
2026-04-12 14:40 37.59396 120.64429 31174 ft 533 kts 123°
2026-04-12 14:41 37.55649 120.72453 31177 ft 531 kts 123°
2026-04-12 14:41 37.51917 120.80468 31177 ft 531 kts 123°
2026-04-12 14:42 37.48190 120.88483 31177 ft 531 kts 123°
2026-04-12 14:42 37.44794 120.96803 31177 ft 533 kts 115°
2026-04-12 14:43 37.42321 121.05592 31178 ft 535 kts 110°
2026-04-12 14:43 37.40009 121.14479 31182 ft 535 kts 110°
2026-04-12 14:44 37.37690 121.23351 31179 ft 535 kts 111°
2026-04-12 14:44 37.34884 121.31978 31179 ft 534 kts 116°
2026-04-12 14:45 37.31876 121.40486 31179 ft 533 kts 116°
2026-04-12 14:45 37.28936 121.49096 31179 ft 533 kts 115°
2026-04-12 14:46 37.26039 121.57646 31179 ft 533 kts 115°
2026-04-12 14:46 37.23146 121.66180 31185 ft 532 kts 115°
2026-04-12 14:47 37.20246 121.74716 31186 ft 533 kts 115°
2026-04-12 14:47 37.17339 121.83248 31186 ft 533 kts 115°
2026-04-12 14:48 37.14430 121.91764 31186 ft 532 kts 115°
2026-04-12 14:48 37.11545 122.00292 31187 ft 532 kts 115°
2026-04-12 14:49 37.08600 122.08842 31187 ft 532 kts 116°
2026-04-12 14:49 37.05661 122.17331 31187 ft 532 kts 116°
2026-04-12 14:50 37.02725 122.25803 31187 ft 531 kts 116°
2026-04-12 14:50 37.00118 122.34438 31189 ft 532 kts 109°
2026-04-12 14:51 36.98069 122.43334 31188 ft 534 kts 108°
2026-04-12 14:51 36.96014 122.52256 31189 ft 535 kts 108°
2026-04-12 14:52 36.93903 122.61208 31190 ft 534 kts 108°
2026-04-12 14:52 36.91792 122.70087 31190 ft 533 kts 108°
2026-04-12 14:53 36.89726 122.78962 31190 ft 533 kts 108°
2026-04-12 14:53 36.87627 122.87842 31191 ft 534 kts 109°
2026-04-12 14:54 36.85510 122.96714 31191 ft 534 kts 109°
2026-04-12 14:54 36.83415 123.05590 31191 ft 534 kts 109°
2026-04-12 14:55 36.81264 123.14500 31193 ft 533 kts 109°
2026-04-12 14:55 36.79114 123.23340 31193 ft 533 kts 109°
2026-04-12 14:56 36.77462 123.32320 31201 ft 535 kts 93°
2026-04-12 14:56 36.77779 123.36940 31189 ft 537 kts 78°
2026-04-12 14:56 36.78937 123.41353 31206 ft 538 kts 67°
2026-04-12 14:57 36.82387 123.49622 31197 ft 539 kts 57°
2026-04-12 14:57 36.86523 123.57382 31195 ft 537 kts 54°
2026-04-12 14:58 36.90647 123.65150 31195 ft 537 kts 55°
2026-04-12 14:58 36.94775 123.72980 31197 ft 537 kts 54°
2026-04-12 14:59 36.98857 123.80809 31196 ft 538 kts 55°
2026-04-12 14:59 37.02908 123.88668 31228 ft 539 kts 55°
2026-04-12 15:00 37.06973 123.96573 31630 ft 542 kts 56°
2026-04-12 15:00 37.08727 124.00730 31822 ft 545 kts 68°
2026-04-12 15:01 37.10333 124.10008 32102 ft 548 kts 83°
2026-04-12 15:01 37.10658 124.14764 32277 ft 548 kts 88°
2026-04-12 15:01 37.10773 124.19523 32498 ft 548 kts 90°
2026-04-12 15:01 37.10845 124.24350 32677 ft 549 kts 90°
2026-04-12 15:02 37.10968 124.29132 32862 ft 550 kts 89°
2026-04-12 15:02 37.11110 124.33905 33051 ft 550 kts 89°
2026-04-12 15:02 37.11256 124.38681 33110 ft 550 kts 89°
2026-04-12 15:03 37.11536 124.48257 33101 ft 551 kts 90°
2026-04-12 15:03 37.11752 124.57845 33102 ft 552 kts 90°
2026-04-12 15:04 37.11916 124.65820 33102 ft 552 kts 90°
2026-04-12 15:04 37.12116 124.75469 33103 ft 552 kts 89°
2026-04-12 15:05 37.12682 124.85048 33104 ft 552 kts 86°
2026-04-12 15:05 37.13487 124.94609 33104 ft 553 kts 85°
2026-04-12 15:06 37.14295 125.04169 33099 ft 550 kts 84°
2026-04-12 15:06 37.15093 125.13666 33099 ft 549 kts 84°
2026-04-12 15:07 37.15891 125.23266 33099 ft 551 kts 84°
2026-04-12 15:07 37.16675 125.32803 33100 ft 551 kts 84°
2026-04-12 15:08 37.17472 125.42343 33100 ft 551 kts 84°
2026-04-12 15:08 37.18277 125.51888 33101 ft 552 kts 84°
2026-04-12 15:09 37.19035 125.61449 33101 ft 552 kts 85°
2026-04-12 15:09 37.19787 125.70998 33102 ft 551 kts 85°
2026-04-12 15:10 37.20508 125.80563 33101 ft 551 kts 87°
2026-04-12 15:10 37.20686 125.90214 33104 ft 551 kts 91°
2026-04-12 15:11 37.20716 125.99801 33104 ft 551 kts 90°
2026-04-12 15:11 37.20817 126.09431 33106 ft 554 kts 90°
2026-04-12 15:12 37.20943 126.19066 33105 ft 553 kts 90°
2026-04-12 15:12 37.21013 126.28706 33106 ft 553 kts 91°
2026-04-12 15:13 37.21074 126.38331 33106 ft 553 kts 91°
2026-04-12 15:13 37.21135 126.48025 33106 ft 553 kts 91°
2026-04-12 15:14 37.21218 126.57662 33104 ft 553 kts 91°
2026-04-12 15:14 37.21256 126.67302 33102 ft 554 kts 91°
2026-04-12 15:15 37.21285 126.76954 33098 ft 554 kts 91°
2026-04-12 15:15 37.21319 126.86605 33089 ft 554 kts 91°
2026-04-12 15:16 37.21990 126.96189 33093 ft 555 kts 73°
2026-04-12 15:16 37.23473 127.00638 33089 ft 554 kts 60°
2026-04-12 15:16 37.25524 127.04709 33102 ft 553 kts 53°
2026-04-12 15:17 37.30367 127.12232 33092 ft 548 kts 44°
2026-04-12 15:17 37.35532 127.19232 33105 ft 547 kts 44°
2026-04-12 15:18 37.40580 127.26352 33126 ft 547 kts 45°
2026-04-12 15:18 37.45614 127.33522 33122 ft 548 kts 47°
2026-04-12 15:18 37.47676 127.37550 33125 ft 551 kts 62°
2026-04-12 15:19 37.49134 127.42018 33095 ft 554 kts 69°
2026-04-12 15:19 37.51063 127.51412 33089 ft 557 kts 79°
2026-04-12 15:20 37.52441 127.61046 33077 ft 556 kts 78°
2026-04-12 15:20 37.53961 127.70573 33028 ft 556 kts 78°
2026-04-12 15:21 37.55501 127.80104 32992 ft 556 kts 78°
2026-04-12 15:21 37.57001 127.89648 32965 ft 555 kts 78°
2026-04-12 15:22 37.58479 127.99181 32952 ft 556 kts 78°
2026-04-12 15:22 37.59955 128.08741 32961 ft 556 kts 79°
2026-04-12 15:23 37.61440 128.18362 32978 ft 556 kts 78°
2026-04-12 15:23 37.62948 128.27923 33001 ft 557 kts 79°
2026-04-12 15:24 37.64404 128.37502 33029 ft 557 kts 79°
2026-04-12 15:24 37.65851 128.47107 33055 ft 557 kts 79°
2026-04-12 15:25 37.67295 128.56704 33069 ft 558 kts 79°
2026-04-12 15:25 37.68737 128.66319 33081 ft 559 kts 79°
2026-04-12 15:26 37.69979 128.75992 33092 ft 559 kts 86°
2026-04-12 15:26 37.69981 128.85845 33087 ft 558 kts 95°
2026-04-12 15:27 37.69340 128.95597 33081 ft 558 kts 96°
2026-04-12 15:27 37.68785 129.05348 33074 ft 558 kts 96°
2026-04-12 15:28 37.68279 129.15109 33067 ft 559 kts 96°
2026-04-12 15:28 37.67775 129.24888 33062 ft 559 kts 96°
2026-04-12 15:29 37.67299 129.34664 33058 ft 559 kts 96°
2026-04-12 15:29 37.66772 129.44517 33057 ft 560 kts 96°
2026-04-12 15:30 37.66230 129.54292 33085 ft 560 kts 96°
2026-04-12 15:30 37.65683 129.64078 33085 ft 559 kts 96°
2026-04-12 15:31 37.65273 129.73856 33083 ft 560 kts 92°
2026-04-12 15:31 37.65164 129.83668 33082 ft 560 kts 93°
2026-04-12 15:32 37.64996 129.93486 33080 ft 560 kts 93°
2026-04-12 15:32 37.64793 130.03289 33081 ft 560 kts 93°
2026-04-12 15:33 37.64568 130.13155 33080 ft 560 kts 94°
2026-04-12 15:33 37.64340 130.22977 33079 ft 561 kts 94°
2026-04-12 15:34 37.64108 130.32805 33077 ft 561 kts 94°
2026-04-12 15:34 37.63859 130.42633 33076 ft 562 kts 94°
2026-04-12 15:35 37.63599 130.52484 33075 ft 563 kts 94°
2026-04-12 15:35 37.63345 130.62353 33073 ft 564 kts 93°
2026-04-12 15:36 37.63114 130.72302 33072 ft 565 kts 94°
2026-04-12 15:36 37.62854 130.82186 33071 ft 565 kts 94°
2026-04-12 15:37 37.62579 130.92097 33069 ft 567 kts 94°
2026-04-12 15:37 37.62294 131.02019 33068 ft 567 kts 94°
2026-04-12 15:38 37.62001 131.11953 33067 ft 568 kts 94°
2026-04-12 15:38 37.61727 131.21910 33064 ft 569 kts 94°
2026-04-12 15:39 37.61417 131.31935 33063 ft 570 kts 95°
2026-04-12 15:39 37.61082 131.41893 33062 ft 569 kts 95°
2026-04-12 15:40 37.60742 131.51859 33060 ft 570 kts 95°
2026-04-12 15:40 37.60468 131.61846 33059 ft 571 kts 92°
2026-04-12 15:41 37.60575 131.71847 33057 ft 571 kts 91°
2026-04-12 15:41 37.60653 131.81846 33056 ft 571 kts 91°
2026-04-12 15:42 37.60689 131.91910 33055 ft 571 kts 91°
2026-04-12 15:42 37.60716 132.01911 33059 ft 572 kts 91°
2026-04-12 15:43 37.60809 132.16950 33049 ft 572 kts 91°
2026-04-12 15:43 37.60830 132.26968 33054 ft 572 kts 91°
2026-04-12 15:44 37.60872 132.36997 33054 ft 572 kts 92°
2026-04-12 15:44 37.60858 132.47016 33055 ft 572 kts 92°
2026-04-12 15:45 37.60832 132.57111 33054 ft 573 kts 92°
2026-04-12 15:45 37.60833 132.67131 33051 ft 573 kts 90°
2026-04-12 15:46 37.61932 132.82132 33064 ft 574 kts 85°
2026-04-12 15:47 37.62685 132.92146 33053 ft 574 kts 85°
2026-04-12 15:47 37.63422 133.02159 33050 ft 575 kts 85°
2026-04-12 15:48 37.64145 133.12178 33050 ft 575 kts 85°
2026-04-12 15:48 37.64863 133.22281 33050 ft 575 kts 85°
2026-04-12 15:49 37.65568 133.32305 33050 ft 575 kts 85°
2026-04-12 15:49 37.66343 133.42333 33049 ft 575 kts 85°
2026-04-12 15:50 37.67040 133.52356 33049 ft 575 kts 85°
2026-04-12 15:50 37.67718 133.62390 33049 ft 574 kts 85°
2026-04-12 15:51 37.68394 133.72423 33049 ft 574 kts 85°
2026-04-12 15:51 37.69053 133.82458 33049 ft 574 kts 85°
2026-04-12 15:52 37.69696 133.92553 33049 ft 574 kts 85°
2026-04-12 15:52 37.70324 134.02586 33049 ft 574 kts 85°
2026-04-12 15:53 37.70942 134.12622 33048 ft 574 kts 86°
2026-04-12 15:53 37.71594 134.22648 33049 ft 574 kts 85°
2026-04-12 15:54 37.72257 134.32692 33049 ft 575 kts 85°
2026-04-12 15:54 37.72886 134.42754 33049 ft 575 kts 85°
2026-04-12 15:55 37.73503 134.52884 33050 ft 575 kts 85°
2026-04-12 15:55 37.74105 134.62940 33050 ft 575 kts 85°
2026-04-12 15:56 37.74698 134.73004 33050 ft 575 kts 85°
2026-04-12 15:56 37.75283 134.83085 33050 ft 576 kts 85°
2026-04-12 15:57 37.75859 134.93182 33045 ft 577 kts 85°
2026-04-12 15:57 37.76428 135.03285 33045 ft 578 kts 85°
2026-04-12 15:58 37.76898 135.11747 33044 ft 577 kts 85°
2026-04-12 15:58 37.77451 135.21860 33047 ft 578 kts 85°
2026-04-12 15:59 37.77996 135.31994 33048 ft 579 kts 85°
2026-04-12 15:59 37.78534 135.42143 33049 ft 580 kts 85°
2026-04-12 16:00 37.79063 135.52292 33049 ft 580 kts 85°
2026-04-12 16:00 37.79586 135.62515 33049 ft 579 kts 85°
2026-04-12 16:01 37.80098 135.72677 33051 ft 580 kts 85°
2026-04-12 16:01 37.80601 135.82838 33051 ft 580 kts 85°
2026-04-12 16:02 37.81096 135.93012 33051 ft 581 kts 85°
2026-04-12 16:02 37.81582 136.03186 33052 ft 581 kts 85°
2026-04-12 16:03 37.82060 136.13371 33053 ft 581 kts 85°
2026-04-12 16:03 37.82529 136.23556 33053 ft 581 kts 85°
2026-04-12 16:04 37.82992 136.33799 33053 ft 581 kts 85°
2026-04-12 16:04 37.83443 136.43975 33055 ft 580 kts 85°
2026-04-12 16:05 37.83885 136.54151 33054 ft 580 kts 85°
2026-04-12 16:05 37.84318 136.64316 33055 ft 580 kts 85°
2026-04-12 16:06 37.84742 136.74488 33055 ft 579 kts 86°
2026-04-12 16:06 37.85157 136.84643 33054 ft 579 kts 86°
2026-04-12 16:07 37.85600 136.94866 33055 ft 579 kts 85°
2026-04-12 16:07 37.85994 137.05033 33055 ft 579 kts 86°
2026-04-12 16:08 37.86366 137.15187 33055 ft 579 kts 86°
2026-04-12 16:08 37.86736 137.25344 33058 ft 578 kts 86°
2026-04-12 16:09 37.87111 137.35482 33059 ft 578 kts 86°
2026-04-12 16:09 37.87479 137.45633 33060 ft 578 kts 86°
2026-04-12 16:10 37.87839 137.55835 33062 ft 577 kts 86°
2026-04-12 16:10 37.88190 137.65966 33063 ft 577 kts 86°
2026-04-12 16:11 37.88604 137.76079 33065 ft 577 kts 85°
2026-04-12 16:11 37.88967 137.86211 33067 ft 577 kts 86°
2026-04-12 16:12 37.89289 137.96341 33070 ft 577 kts 86°
2026-04-12 16:12 37.89607 138.06467 33068 ft 577 kts 86°
2026-04-12 16:13 37.89919 138.16590 33070 ft 577 kts 86°
2026-04-12 16:13 37.90217 138.26791 33072 ft 577 kts 86°
2026-04-12 16:14 37.90502 138.36928 33074 ft 577 kts 86°
2026-04-12 16:14 37.90779 138.47061 33076 ft 577 kts 87°
2026-04-12 16:15 37.91070 138.57199 33078 ft 577 kts 86°
2026-04-12 16:15 37.91384 138.67333 33078 ft 577 kts 86°
2026-04-12 16:16 37.91690 138.77473 33080 ft 577 kts 86°
2026-04-12 16:16 37.91949 138.87618 33081 ft 577 kts 87°
2026-04-12 16:17 37.92184 138.97822 33082 ft 577 kts 87°
2026-04-12 16:17 37.92415 139.07976 33083 ft 577 kts 87°
2026-04-12 16:18 37.93050 139.18080 33083 ft 576 kts 81°
2026-04-12 16:18 37.94192 139.28114 33083 ft 576 kts 79°
2026-04-12 16:19 37.95283 139.38122 33081 ft 574 kts 79°
2026-04-12 16:19 37.96386 139.48124 33079 ft 574 kts 80°
2026-04-12 16:20 37.97425 139.58217 33077 ft 575 kts 80°
2026-04-12 16:20 37.98445 139.68241 33075 ft 575 kts 81°
2026-04-12 16:21 37.99466 139.78280 33072 ft 575 kts 81°
2026-04-12 16:21 38.00473 139.88327 33067 ft 575 kts 81°
2026-04-12 16:22 38.01465 139.98364 33066 ft 575 kts 81°
2026-04-12 16:22 38.02449 140.08414 33063 ft 575 kts 81°
2026-04-12 16:23 38.03432 140.18534 33060 ft 575 kts 81°
2026-04-12 16:23 38.04457 140.28582 33061 ft 576 kts 81°
2026-04-12 16:24 38.05452 140.38651 33058 ft 576 kts 81°
2026-04-12 16:24 38.06424 140.48735 33054 ft 577 kts 81°
2026-04-12 16:25 38.07422 140.58822 33054 ft 578 kts 81°
2026-04-12 16:25 38.08373 140.68951 33054 ft 579 kts 81°
2026-04-12 16:26 38.09313 140.79174 33053 ft 581 kts 81°
2026-04-12 16:26 38.10204 140.89355 33044 ft 582 kts 85°
2026-04-12 16:27 38.09816 140.99598 33054 ft 584 kts 96°
2026-04-12 16:27 38.08595 141.09780 33053 ft 586 kts 99°
2026-04-12 16:28 38.07332 141.19995 33053 ft 587 kts 99°
2026-04-12 16:28 38.06129 141.30217 33053 ft 588 kts 99°
2026-04-12 16:29 38.04966 141.40466 33052 ft 588 kts 98°
2026-04-12 16:29 38.03797 141.50775 33052 ft 588 kts 99°
2026-04-12 16:30 38.02601 141.61038 33052 ft 589 kts 99°
2026-04-12 16:30 38.01425 141.71299 33051 ft 589 kts 99°
2026-04-12 16:31 38.00203 141.81566 33048 ft 590 kts 99°
2026-04-12 16:31 37.98960 141.91817 33048 ft 589 kts 99°
2026-04-12 16:32 37.97714 142.02054 33047 ft 589 kts 99°
2026-04-12 16:32 37.96452 142.12359 33045 ft 589 kts 99°
2026-04-12 16:33 37.95180 142.22590 33044 ft 589 kts 99°
2026-04-12 16:33 37.93895 142.32829 33043 ft 589 kts 99°
2026-04-12 16:34 37.92605 142.43054 33042 ft 589 kts 100°
2026-04-12 16:34 37.91338 142.53283 33041 ft 589 kts 99°
2026-04-12 16:35 37.90079 142.63513 33039 ft 589 kts 99°
2026-04-12 16:35 37.88786 142.73734 33038 ft 588 kts 99°
2026-04-12 16:36 37.87479 142.84007 33037 ft 588 kts 99°
2026-04-12 16:36 37.86192 142.94210 33035 ft 589 kts 99°
2026-04-12 16:37 37.84849 143.04437 33034 ft 589 kts 100°
2026-04-12 16:37 37.83500 143.14640 33032 ft 590 kts 100°
2026-04-12 16:38 37.82151 143.24870 33034 ft 590 kts 99°
2026-04-12 16:38 37.80811 143.35100 33034 ft 591 kts 100°
2026-04-12 16:39 37.79595 143.45374 33017 ft 591 kts 91°
2026-04-12 16:39 37.79902 143.50595 33015 ft 589 kts 76°
2026-04-12 16:39 37.81060 143.55497 33031 ft 580 kts 62°
2026-04-12 16:39 37.82957 143.59934 33040 ft 570 kts 50°
2026-04-12 16:40 37.85357 143.63848 33037 ft 558 kts 40°
2026-04-12 16:40 37.90985 143.70462 33029 ft 550 kts 30°
2026-04-12 16:41 37.96866 143.76557 33027 ft 545 kts 30°
2026-04-12 16:41 38.02602 143.82781 33025 ft 542 kts 31°
2026-04-12 16:42 38.08340 143.89073 33024 ft 543 kts 31°
2026-04-12 16:42 38.14038 143.95374 33022 ft 544 kts 31°
2026-04-12 16:43 38.25416 144.08048 33010 ft 544 kts 31°
2026-04-12 16:44 38.31096 144.14400 33008 ft 544 kts 31°
2026-04-12 16:44 38.36770 144.20759 33017 ft 543 kts 31°
2026-04-12 16:45 38.42424 144.27109 33029 ft 542 kts 31°
2026-04-12 16:45 38.48127 144.33487 33029 ft 543 kts 31°
2026-04-12 16:46 38.53765 144.39860 33029 ft 542 kts 31°
2026-04-12 16:46 38.59390 144.46237 33028 ft 541 kts 31°
2026-04-12 16:47 38.65009 144.52613 33027 ft 541 kts 31°
2026-04-12 16:47 38.70618 144.59009 33028 ft 541 kts 31°
2026-04-12 16:48 38.76205 144.65414 33026 ft 539 kts 31°
2026-04-12 16:48 38.81815 144.71867 33026 ft 539 kts 31°
2026-04-12 16:49 38.87391 144.78298 33025 ft 540 kts 31°
2026-04-12 16:49 38.92961 144.84727 33025 ft 538 kts 31°
2026-04-12 16:50 38.98541 144.91101 33024 ft 537 kts 31°
2026-04-12 16:50 39.04099 144.97502 33023 ft 537 kts 31°
2026-04-12 16:51 39.09653 145.03926 33023 ft 538 kts 31°
2026-04-12 16:51 39.14301 145.09319 33022 ft 538 kts 31°
2026-04-12 16:52 39.19851 145.15773 32947 ft 538 kts 32°
2026-04-12 16:52 39.25393 145.22233 32932 ft 538 kts 32°
2026-04-12 16:53 39.30917 145.28686 32926 ft 536 kts 32°
2026-04-12 16:53 39.36436 145.35148 32923 ft 536 kts 32°
2026-04-12 16:54 39.41987 145.41663 32920 ft 536 kts 32°
2026-04-12 16:54 39.47500 145.48147 32916 ft 537 kts 32°
2026-04-12 16:55 39.53009 145.54640 32913 ft 537 kts 32°
2026-04-12 16:55 39.58517 145.61147 32910 ft 537 kts 32°
2026-04-12 16:56 39.64014 145.67657 32908 ft 535 kts 32°
2026-04-12 16:56 39.69495 145.74160 32907 ft 535 kts 32°
2026-04-12 16:57 39.75015 145.80726 32905 ft 535 kts 32°
2026-04-12 16:57 39.80490 145.87253 32902 ft 535 kts 32°
2026-04-12 16:58 39.85964 145.93793 32898 ft 535 kts 32°
2026-04-12 16:58 39.91437 146.00347 32897 ft 535 kts 32°
2026-04-12 16:59 39.96904 146.06909 32895 ft 535 kts 32°
2026-04-12 16:59 40.02371 146.13486 32894 ft 535 kts 32°
2026-04-12 17:00 40.07870 146.20117 32890 ft 536 kts 32°
2026-04-12 17:00 40.13331 146.26716 32888 ft 536 kts 32°
2026-04-12 17:01 40.18786 146.33323 32886 ft 535 kts 32°
2026-04-12 17:01 40.24236 146.39941 32883 ft 536 kts 32°
2026-04-12 17:02 40.29688 146.46574 32881 ft 536 kts 33°
2026-04-12 17:02 40.35131 146.53214 32879 ft 536 kts 33°
2026-04-12 17:03 40.40578 146.59873 32877 ft 536 kts 33°
2026-04-12 17:03 40.46051 146.66579 32875 ft 536 kts 33°
2026-04-12 17:04 40.51483 146.73251 32873 ft 536 kts 33°
2026-04-12 17:04 40.56918 146.79942 32871 ft 536 kts 33°
2026-04-12 17:05 40.62341 146.86634 32870 ft 536 kts 33°
2026-04-12 17:05 40.67770 146.93349 32868 ft 536 kts 33°
2026-04-12 17:06 40.73184 147.00061 32865 ft 536 kts 33°
2026-04-12 17:06 40.78638 147.06838 32866 ft 536 kts 33°
2026-04-12 17:07 40.84054 147.13585 32863 ft 536 kts 34°
2026-04-12 17:07 40.89458 147.20332 32871 ft 536 kts 34°
2026-04-12 17:08 40.94868 147.27104 32870 ft 536 kts 34°
2026-04-12 17:08 41.00269 147.33879 32869 ft 536 kts 34°
2026-04-12 17:09 41.05666 147.40666 32868 ft 537 kts 34°
2026-04-12 17:09 41.11108 147.47525 32867 ft 538 kts 34°
2026-04-12 17:10 41.16518 147.54361 32865 ft 537 kts 34°
2026-04-12 17:10 41.21916 147.61198 32864 ft 537 kts 34°
2026-04-12 17:11 41.27310 147.68046 32881 ft 537 kts 35°
2026-04-12 17:11 41.32699 147.74904 32882 ft 537 kts 35°
2026-04-12 17:12 41.38082 147.81772 32882 ft 537 kts 35°
2026-04-12 17:12 41.43504 147.88705 32880 ft 537 kts 35°
2026-04-12 17:13 41.48878 147.95589 32880 ft 537 kts 35°
2026-04-12 17:13 41.54269 148.02468 32879 ft 537 kts 35°
2026-04-12 17:14 41.59628 148.09387 32878 ft 537 kts 36°
2026-04-12 17:14 41.64985 148.16329 32877 ft 537 kts 36°
2026-04-12 17:15 41.70339 148.23269 32876 ft 537 kts 36°
2026-04-12 17:15 41.75663 148.30266 32874 ft 538 kts 36°
2026-04-12 17:16 41.80964 148.37313 32875 ft 538 kts 36°
2026-04-12 17:16 41.86298 148.44425 32874 ft 539 kts 37°
2026-04-12 17:17 41.91609 148.51525 32874 ft 540 kts 37°
2026-04-12 17:17 41.96919 148.58629 32873 ft 539 kts 36°
2026-04-12 17:18 42.02258 148.65685 32872 ft 539 kts 37°
2026-04-12 17:18 42.07564 148.72764 32871 ft 538 kts 37°
2026-04-12 17:19 42.12860 148.79866 32870 ft 539 kts 37°
2026-04-12 17:19 42.18203 148.87055 32870 ft 540 kts 37°
2026-04-12 17:20 42.23497 148.94201 32869 ft 539 kts 38°
2026-04-12 17:20 42.28786 149.01358 32868 ft 539 kts 38°
2026-04-12 17:21 42.34067 149.08523 32867 ft 539 kts 38°
2026-04-12 17:21 42.39339 149.15694 32866 ft 539 kts 38°
2026-04-12 17:22 42.44610 149.22881 32865 ft 539 kts 38°
2026-04-12 17:22 42.49880 149.30086 32865 ft 539 kts 38°
2026-04-12 17:23 42.55173 149.37340 32864 ft 539 kts 38°
2026-04-12 17:23 42.60427 149.44559 32862 ft 539 kts 38°
2026-04-12 17:24 42.65681 149.51797 32862 ft 538 kts 38°
2026-04-12 17:24 42.70925 149.59039 32860 ft 539 kts 38°
2026-04-12 17:25 42.76172 149.66305 32859 ft 539 kts 39°
2026-04-12 17:25 42.81417 149.73586 32858 ft 540 kts 39°
2026-04-12 17:26 42.86696 149.80933 32858 ft 539 kts 39°
2026-04-12 17:26 42.91926 149.88232 32856 ft 539 kts 39°
2026-04-12 17:27 42.97158 149.95550 32798 ft 540 kts 39°
2026-04-12 17:27 43.02391 150.02889 32793 ft 540 kts 39°
2026-04-12 17:28 43.07625 150.10251 32792 ft 541 kts 40°
2026-04-12 17:28 43.12868 150.17644 32792 ft 542 kts 40°
2026-04-12 17:29 43.18103 150.25045 32790 ft 542 kts 40°
2026-04-12 17:29 43.23364 150.32503 32789 ft 541 kts 40°
2026-04-12 17:30 43.28588 150.39926 32788 ft 542 kts 40°
2026-04-12 17:30 43.33816 150.47377 32787 ft 542 kts 40°
2026-04-12 17:31 43.39033 150.54831 32785 ft 542 kts 41°
2026-04-12 17:31 43.44249 150.62302 32785 ft 543 kts 41°
2026-04-12 17:32 43.49464 150.69792 32783 ft 543 kts 41°
2026-04-12 17:32 43.54715 150.77355 32783 ft 543 kts 41°
2026-04-12 17:33 43.59928 150.84883 32782 ft 543 kts 41°
2026-04-12 17:33 43.65134 150.92420 32781 ft 543 kts 41°
2026-04-12 17:34 43.70334 150.99969 32779 ft 544 kts 41°
2026-04-12 17:34 43.75543 151.07552 32776 ft 544 kts 41°
2026-04-12 17:35 43.80743 151.15143 32776 ft 545 kts 42°
2026-04-12 17:35 43.85981 151.22809 32776 ft 545 kts 42°
2026-04-12 17:36 43.91184 151.30446 32774 ft 545 kts 42°
2026-04-12 17:36 43.96377 151.38088 32773 ft 545 kts 42°
2026-04-12 17:37 44.01568 151.45748 32770 ft 545 kts 43°
2026-04-12 17:37 44.06760 151.53430 32770 ft 546 kts 43°
2026-04-12 17:38 44.11946 151.61126 32768 ft 546 kts 43°
2026-04-12 17:38 44.17168 151.68896 32730 ft 547 kts 43°
2026-04-12 17:39 44.22356 151.76637 32723 ft 547 kts 43°
2026-04-12 17:39 44.27533 151.84384 32721 ft 547 kts 43°
2026-04-12 17:40 44.32713 151.92154 32720 ft 547 kts 43°
2026-04-12 17:40 44.37881 151.99930 32719 ft 547 kts 43°
2026-04-12 17:41 44.43049 152.07728 32717 ft 547 kts 44°
2026-04-12 17:41 44.48215 152.15543 32715 ft 548 kts 44°
2026-04-12 17:42 44.53371 152.23366 32714 ft 548 kts 44°
2026-04-12 17:42 44.58568 152.31273 32712 ft 548 kts 44°
2026-04-12 17:43 44.66294 152.43069 32710 ft 548 kts 44°
2026-04-12 17:43 44.71448 152.50967 32708 ft 549 kts 44°
2026-04-12 17:44 44.79160 152.62825 32706 ft 549 kts 45°
2026-04-12 17:45 44.84305 152.70765 32703 ft 549 kts 45°
2026-04-12 17:45 44.88609 152.77424 32702 ft 550 kts 45°
2026-04-12 17:46 44.93759 152.85358 32700 ft 549 kts 44°
2026-04-12 17:46 44.99071 152.93080 32698 ft 549 kts 43°
2026-04-12 17:47 45.04407 153.00775 32696 ft 549 kts 43°
2026-04-12 17:47 45.09776 153.08548 32694 ft 549 kts 43°
2026-04-12 17:48 45.15105 153.16287 32692 ft 550 kts 43°
2026-04-12 17:48 45.20436 153.24051 32690 ft 550 kts 43°
2026-04-12 17:49 45.25762 153.31830 32688 ft 551 kts 43°
2026-04-12 17:49 45.31090 153.39625 32686 ft 551 kts 43°
2026-04-12 17:50 45.36444 153.47394 32683 ft 551 kts 44°
2026-04-12 17:50 45.41766 153.55241 32682 ft 552 kts 44°
2026-04-12 17:51 45.47127 153.63174 32679 ft 553 kts 44°
2026-04-12 17:51 45.52460 153.71059 32677 ft 553 kts 44°
2026-04-12 17:52 45.57636 153.79161 32675 ft 554 kts 47°
2026-04-12 17:52 45.62651 153.87513 32672 ft 555 kts 48°
2026-04-12 17:53 45.67689 153.95858 32670 ft 556 kts 47°
2026-04-12 17:53 45.72744 154.04222 32667 ft 556 kts 47°
2026-04-12 17:54 45.77814 154.12557 32665 ft 556 kts 47°
2026-04-12 17:54 45.82945 154.20927 32662 ft 556 kts 47°
2026-04-12 17:55 45.88010 154.29274 32659 ft 556 kts 47°
2026-04-12 17:55 45.93068 154.37656 32657 ft 556 kts 48°
2026-04-12 17:56 45.98119 154.46059 32655 ft 556 kts 48°
2026-04-12 17:56 46.03162 154.54477 32652 ft 556 kts 48°
2026-04-12 17:57 46.08193 154.62903 32649 ft 556 kts 48°
2026-04-12 17:57 46.13256 154.71407 32646 ft 556 kts 49°
2026-04-12 17:58 46.18279 154.79872 32643 ft 557 kts 49°
2026-04-12 17:58 46.23303 154.88363 32641 ft 557 kts 49°
2026-04-12 17:59 46.28317 154.96864 32638 ft 557 kts 49°
2026-04-12 17:59 46.33329 155.05387 32635 ft 557 kts 49°
2026-04-12 18:00 46.38342 155.13940 32632 ft 558 kts 49°
2026-04-12 18:00 46.43385 155.22569 32629 ft 558 kts 50°
2026-04-12 18:01 46.48391 155.31163 32627 ft 558 kts 50°
2026-04-12 18:01 46.53388 155.39768 32624 ft 558 kts 50°
2026-04-12 18:02 46.58378 155.48387 32620 ft 558 kts 50°
2026-04-12 18:02 46.63363 155.57026 32617 ft 558 kts 50°
2026-04-12 18:03 46.68329 155.65659 32615 ft 558 kts 50°
2026-04-12 18:03 46.73330 155.74380 32612 ft 558 kts 50°
2026-04-12 18:04 46.78297 155.83068 32609 ft 558 kts 50°
2026-04-12 18:04 46.83260 155.91778 32606 ft 559 kts 50°
2026-04-12 18:05 46.88211 156.00495 32604 ft 559 kts 51°
2026-04-12 18:05 46.93167 156.09247 32600 ft 560 kts 51°
2026-04-12 18:06 46.98137 156.18056 32596 ft 557 kts 50°
2026-04-12 18:06 47.03060 156.26805 32594 ft 557 kts 50°
2026-04-12 18:07 47.07965 156.35552 32590 ft 556 kts 50°
2026-04-12 18:07 47.12866 156.44317 32588 ft 556 kts 51°
2026-04-12 18:08 47.17757 156.53096 32585 ft 556 kts 51°
2026-04-12 18:08 47.22648 156.61902 32582 ft 556 kts 51°
2026-04-12 18:09 47.27528 156.70717 32579 ft 556 kts 51°
2026-04-12 18:09 47.32434 156.79606 32578 ft 556 kts 51°
2026-04-12 18:10 47.37300 156.88453 32574 ft 556 kts 51°
2026-04-12 18:10 47.42162 156.97321 32573 ft 557 kts 51°
2026-04-12 18:11 47.47021 157.06212 32566 ft 557 kts 51°
2026-04-12 18:11 47.51870 157.15113 32563 ft 557 kts 52°
2026-04-12 18:12 47.56714 157.24036 32561 ft 557 kts 52°
2026-04-12 18:12 47.61590 157.33047 32558 ft 557 kts 52°
2026-04-12 18:13 47.66428 157.42018 32557 ft 558 kts 52°
2026-04-12 18:13 47.71253 157.50993 32554 ft 558 kts 52°
2026-04-12 18:14 47.76075 157.59992 32551 ft 558 kts 52°
2026-04-12 18:14 47.80894 157.69017 32549 ft 558 kts 52°
2026-04-12 18:15 47.85710 157.78065 32547 ft 558 kts 53°
2026-04-12 18:15 47.90515 157.87122 32544 ft 558 kts 53°
2026-04-12 18:16 47.95343 157.96254 32542 ft 558 kts 53°
2026-04-12 18:16 48.00131 158.05340 32539 ft 558 kts 53°
2026-04-12 18:17 48.04908 158.14437 32537 ft 558 kts 53°
2026-04-12 18:17 48.09685 158.23563 32535 ft 558 kts 53°
2026-04-12 18:18 48.14447 158.32693 32533 ft 558 kts 53°
2026-04-12 18:18 48.19206 158.41847 32532 ft 557 kts 53°
2026-04-12 18:19 48.23977 158.51055 32533 ft 556 kts 53°
2026-04-12 18:19 48.28709 158.60217 32532 ft 556 kts 54°
2026-04-12 18:20 48.33427 158.69386 32531 ft 556 kts 54°
2026-04-12 18:20 48.38142 158.78580 32530 ft 556 kts 54°
2026-04-12 18:21 48.42844 158.87779 32528 ft 555 kts 54°
2026-04-12 18:21 48.47540 158.96997 32526 ft 556 kts 54°
2026-04-12 18:22 48.52258 159.06291 32525 ft 555 kts 54°
2026-04-12 18:22 48.56933 159.15532 32523 ft 554 kts 54°
2026-04-12 18:23 48.61602 159.24794 32523 ft 555 kts 55°
2026-04-12 18:23 48.66264 159.34073 32521 ft 555 kts 55°
2026-04-12 18:24 48.70915 159.43362 32519 ft 554 kts 55°
2026-04-12 18:24 48.75556 159.52662 32519 ft 554 kts 55°
2026-04-12 18:25 48.80194 159.61986 32518 ft 555 kts 55°
2026-04-12 18:25 48.84860 159.71295 32517 ft 555 kts 55°
2026-04-12 18:26 48.89499 159.80723 32517 ft 554 kts 56°
2026-04-12 18:26 48.94089 159.90096 32515 ft 553 kts 56°
2026-04-12 18:27 48.98676 159.99473 32514 ft 553 kts 56°
2026-04-12 18:27 49.03185 160.08963 32514 ft 555 kts 58°
2026-04-12 18:28 49.07629 160.18569 32513 ft 555 kts 58°
2026-04-12 18:28 49.12072 160.28174 32512 ft 554 kts 58°
2026-04-12 18:29 49.16533 160.37840 32512 ft 554 kts 58°
2026-04-12 18:29 49.20985 160.47443 32512 ft 554 kts 57°
2026-04-12 18:30 49.25460 160.57029 32511 ft 554 kts 58°
2026-04-12 18:30 49.29896 160.66665 32511 ft 555 kts 58°
2026-04-12 18:31 49.34344 160.76304 32511 ft 555 kts 58°
2026-04-12 18:31 49.38777 160.85988 32511 ft 555 kts 58°
2026-04-12 18:32 49.43201 160.95776 32511 ft 556 kts 59°
2026-04-12 18:32 49.47595 161.05529 32510 ft 555 kts 59°
2026-04-12 18:33 49.51982 161.15290 32511 ft 556 kts 59°
2026-04-12 18:33 49.56332 161.25105 32511 ft 556 kts 59°
2026-04-12 18:34 49.60671 161.34957 32510 ft 557 kts 59°
2026-04-12 18:34 49.65000 161.44832 32511 ft 556 kts 60°
2026-04-12 18:35 49.69347 161.54786 32512 ft 556 kts 60°
2026-04-12 18:35 49.73716 161.64627 32512 ft 556 kts 59°
2026-04-12 18:36 49.76632 161.71217 32512 ft 556 kts 59°
2026-04-12 18:36 49.77335 161.72816 32513 ft 556 kts 60°
2026-04-12 18:37 49.86706 161.94323 32514 ft 556 kts 60°
2026-04-12 18:37 49.90301 162.02638 32514 ft 555 kts 60°
2026-04-12 18:38 49.94591 162.12594 32516 ft 555 kts 60°
2026-04-12 18:38 49.98867 162.22559 32516 ft 556 kts 60°
2026-04-12 18:39 50.03140 162.32555 32518 ft 556 kts 60°
2026-04-12 18:39 50.07404 162.42566 32519 ft 556 kts 60°
2026-04-12 18:40 50.11689 162.52665 32520 ft 556 kts 61°
2026-04-12 18:40 50.15945 162.62735 32521 ft 557 kts 61°
2026-04-12 18:41 50.20188 162.72813 32505 ft 557 kts 62°
2026-04-12 18:41 50.24427 162.82919 32502 ft 558 kts 62°
2026-04-12 18:42 50.28666 162.93065 32505 ft 559 kts 62°
2026-04-12 18:42 50.32908 163.03258 32507 ft 560 kts 62°
2026-04-12 18:43 50.41400 163.23782 32511 ft 561 kts 63°
2026-04-12 18:44 50.45630 163.34066 32514 ft 562 kts 63°
2026-04-12 18:44 50.49856 163.44379 32516 ft 563 kts 63°
2026-04-12 18:45 50.54081 163.54733 32518 ft 564 kts 63°
2026-04-12 18:45 50.58324 163.65172 32521 ft 564 kts 63°
2026-04-12 18:46 50.62536 163.75575 32524 ft 564 kts 63°
2026-04-12 18:46 50.66735 163.85988 32527 ft 564 kts 63°
2026-04-12 18:47 50.70929 163.96429 32530 ft 564 kts 64°
2026-04-12 18:47 50.75160 164.06876 32531 ft 569 kts 64°
2026-04-12 18:48 50.79372 164.17448 32537 ft 569 kts 65°
2026-04-12 18:48 50.83550 164.28043 32540 ft 568 kts 65°
2026-04-12 18:49 50.87749 164.38717 32543 ft 569 kts 65°
2026-04-12 18:49 50.91927 164.49332 32548 ft 569 kts 65°
2026-04-12 18:50 50.96102 164.59945 32551 ft 568 kts 65°
2026-04-12 18:50 51.00269 164.70608 32555 ft 569 kts 65°
2026-04-12 18:51 51.04430 164.81297 32553 ft 570 kts 66°
2026-04-12 18:51 51.08597 164.92018 32556 ft 572 kts 65°
2026-04-12 18:52 51.12852 165.02777 32561 ft 571 kts 66°
2026-04-12 18:52 51.17027 165.13529 32565 ft 572 kts 66°
2026-04-12 18:53 51.21222 165.24290 32569 ft 573 kts 66°
2026-04-12 18:53 51.25380 165.35111 32575 ft 574 kts 67°
2026-04-12 18:54 51.29510 165.45994 32579 ft 574 kts 67°
2026-04-12 18:54 51.33644 165.56913 32583 ft 575 kts 68°
2026-04-12 18:55 51.37779 165.67835 32588 ft 575 kts 68°
2026-04-12 18:55 51.41911 165.78782 32592 ft 574 kts 68°
2026-04-12 18:56 51.46041 165.89803 32594 ft 574 kts 68°
2026-04-12 18:56 51.50130 166.00777 32599 ft 575 kts 68°
2026-04-12 18:57 51.54231 166.11801 32604 ft 577 kts 68°
2026-04-12 18:57 51.58418 166.22793 32609 ft 577 kts 68°
2026-04-12 18:58 51.62551 166.33836 32614 ft 576 kts 68°
2026-04-12 18:58 51.66675 166.44960 32620 ft 575 kts 68°
2026-04-12 18:59 51.70753 166.56028 32625 ft 575 kts 68°
2026-04-12 18:59 51.74815 166.67107 32630 ft 575 kts 68°
2026-04-12 19:00 51.78870 166.78216 32633 ft 575 kts 68°
2026-04-12 19:00 51.82915 166.89347 32639 ft 576 kts 68°
2026-04-12 19:01 51.86953 167.00506 32644 ft 575 kts 68°
2026-04-12 19:01 51.90971 167.11663 32649 ft 575 kts 67°
2026-04-12 19:02 51.95008 167.22919 32656 ft 574 kts 67°
2026-04-12 19:02 51.99006 167.34115 32661 ft 574 kts 67°
2026-04-12 19:03 52.02989 167.45321 32666 ft 573 kts 67°
2026-04-12 19:03 52.06954 167.56525 32672 ft 573 kts 67°
2026-04-12 19:04 52.10907 167.67747 32677 ft 573 kts 66°
2026-04-12 19:04 52.14852 167.78993 32682 ft 573 kts 67°
2026-04-12 19:05 52.18786 167.90262 32687 ft 573 kts 66°
2026-04-12 19:05 52.22735 168.01623 32693 ft 573 kts 67°
2026-04-12 19:06 52.26644 168.12921 32698 ft 572 kts 67°
2026-04-12 19:06 52.30547 168.24252 32703 ft 573 kts 67°
2026-04-12 19:07 52.34441 168.35607 32707 ft 574 kts 67°
2026-04-12 19:07 52.38329 168.46999 32713 ft 574 kts 67°
2026-04-12 19:08 52.42209 168.58418 32718 ft 575 kts 67°
2026-04-12 19:08 52.46084 168.69876 32723 ft 576 kts 66°
2026-04-12 19:09 52.49976 168.81438 32727 ft 577 kts 66°
2026-04-12 19:09 52.53841 168.92973 32732 ft 578 kts 66°
2026-04-12 19:10 52.57695 169.04531 32737 ft 578 kts 66°
2026-04-12 19:10 52.61544 169.16125 32741 ft 579 kts 66°
2026-04-12 19:11 52.65386 169.27753 32745 ft 580 kts 66°
2026-04-12 19:11 52.69249 169.39500 32749 ft 580 kts 66°
2026-04-12 19:12 52.73080 169.51208 32754 ft 581 kts 66°
2026-04-12 19:12 52.76902 169.62942 32757 ft 582 kts 66°
2026-04-12 19:13 52.80758 169.74682 32762 ft 582 kts 65°
2026-04-12 19:13 52.84567 169.86473 32785 ft 582 kts 66°
2026-04-12 19:14 52.88367 169.98399 32787 ft 582 kts 66°
2026-04-12 19:14 52.92136 170.10261 32790 ft 584 kts 65°
2026-04-12 19:15 52.96712 170.21371 32795 ft 587 kts 53°
2026-04-12 19:15 53.02012 170.31652 32795 ft 588 kts 49°
2026-04-12 19:16 53.07385 170.41891 32796 ft 588 kts 50°
2026-04-12 19:16 53.12695 170.52220 32878 ft 588 kts 50°
2026-04-12 19:16 53.15337 170.57398 33172 ft 588 kts 50°
2026-04-12 19:17 53.17998 170.62553 33455 ft 588 kts 49°
2026-04-12 19:17 53.20687 170.67709 33643 ft 590 kts 50°
2026-04-12 19:17 53.23358 170.72885 33944 ft 589 kts 50°
2026-04-12 19:17 53.26048 170.78140 34228 ft 588 kts 50°
2026-04-12 19:18 53.28682 170.83311 34652 ft 584 kts 50°
2026-04-12 19:18 53.31310 170.88488 34757 ft 584 kts 50°
2026-04-12 19:18 53.33930 170.93663 34796 ft 584 kts 50°
2026-04-12 19:19 53.39163 171.04039 34805 ft 583 kts 50°
2026-04-12 19:19 53.44376 171.14419 34806 ft 582 kts 50°
2026-04-12 19:20 53.48731 171.23127 34807 ft 582 kts 49°
2026-04-12 19:20 53.54749 171.35207 34808 ft 581 kts 49°
2026-04-12 19:21 53.59940 171.45679 34809 ft 579 kts 49°
2026-04-12 19:21 53.65087 171.56103 34809 ft 579 kts 49°
2026-04-12 19:22 53.70218 171.66537 34810 ft 579 kts 49°
2026-04-12 19:22 53.75344 171.77007 34812 ft 579 kts 49°
2026-04-12 19:23 53.80458 171.87497 34811 ft 578 kts 49°
2026-04-12 19:23 53.85548 171.97980 34812 ft 578 kts 49°
2026-04-12 19:24 53.90638 172.08508 34813 ft 578 kts 49°
2026-04-12 19:24 53.95751 172.19129 34813 ft 578 kts 49°
2026-04-12 19:25 54.00818 172.29701 34815 ft 578 kts 50°
2026-04-12 19:25 54.05880 172.40293 34815 ft 578 kts 49°
2026-04-12 19:26 54.10967 172.50869 34808 ft 578 kts 49°
2026-04-12 19:26 54.15985 172.61524 34807 ft 577 kts 50°
2026-04-12 19:27 54.20990 172.72204 34807 ft 576 kts 50°
2026-04-12 19:27 54.25825 172.83195 34811 ft 576 kts 57°
2026-04-12 19:28 54.29648 172.95207 34808 ft 576 kts 63°
2026-04-12 19:28 54.33082 173.07577 34809 ft 576 kts 64°
2026-04-12 19:29 54.36543 173.19934 34809 ft 576 kts 64°
2026-04-12 19:29 54.40021 173.32271 34809 ft 575 kts 64°
2026-04-12 19:30 54.43575 173.44526 34810 ft 574 kts 62°
2026-04-12 19:30 54.47125 173.56814 34810 ft 575 kts 63°
2026-04-12 19:31 54.50653 173.69226 34810 ft 574 kts 63°
2026-04-12 19:31 54.54131 173.81572 34811 ft 574 kts 63°
2026-04-12 19:32 54.57596 173.93951 34811 ft 574 kts 63°
2026-04-12 19:32 54.60470 174.04274 34811 ft 574 kts 63°
2026-04-12 19:33 54.63906 174.16678 34822 ft 574 kts 63°
2026-04-12 19:33 54.67349 174.29170 34830 ft 573 kts 63°
2026-04-12 19:34 54.70756 174.41604 34831 ft 573 kts 63°
2026-04-12 19:34 54.74154 174.54068 34832 ft 574 kts 63°
2026-04-12 19:35 54.77539 174.66555 34832 ft 574 kts 63°
2026-04-12 19:35 54.80910 174.79057 34835 ft 574 kts 63°
2026-04-12 19:36 54.84271 174.91592 34836 ft 574 kts 63°
2026-04-12 19:36 54.87620 175.04153 34837 ft 574 kts 63°
2026-04-12 19:37 54.90977 175.16810 34838 ft 574 kts 63°
2026-04-12 19:37 54.94294 175.29388 34839 ft 573 kts 63°
2026-04-12 19:38 54.97602 175.42005 34841 ft 574 kts 63°
2026-04-12 19:38 55.00896 175.54635 34843 ft 574 kts 63°
2026-04-12 19:39 55.04178 175.67289 34844 ft 574 kts 63°
2026-04-12 19:39 55.07449 175.79975 34846 ft 574 kts 63°
2026-04-12 19:40 55.10725 175.92752 34848 ft 574 kts 63°
2026-04-12 19:40 55.13962 176.05457 34849 ft 573 kts 63°
2026-04-12 19:41 55.17187 176.18176 34852 ft 573 kts 63°
2026-04-12 19:41 55.20396 176.30905 34854 ft 573 kts 63°
2026-04-12 19:42 55.23595 176.43672 34855 ft 573 kts 63°
2026-04-12 19:42 55.26777 176.56444 34858 ft 573 kts 63°
2026-04-12 19:43 55.31547 176.75729 34861 ft 573 kts 63°
2026-04-12 19:43 55.34695 176.88552 34863 ft 573 kts 63°
2026-04-12 19:44 55.37833 177.01407 34865 ft 573 kts 63°
2026-04-12 19:44 55.40951 177.14256 34868 ft 572 kts 63°
2026-04-12 19:45 55.44061 177.27146 34871 ft 573 kts 63°
2026-04-12 19:45 55.47158 177.40060 34873 ft 574 kts 63°
2026-04-12 19:46 55.50265 177.53096 34875 ft 574 kts 63°
2026-04-12 19:46 55.53344 177.66092 34876 ft 575 kts 63°
2026-04-12 19:47 55.56412 177.79116 34879 ft 575 kts 63°
2026-04-12 19:47 55.59498 177.92137 34882 ft 576 kts 62°
2026-04-12 19:48 55.62571 178.05220 34885 ft 576 kts 63°
2026-04-12 19:48 55.65577 178.18351 34889 ft 576 kts 64°
2026-04-12 19:49 55.68567 178.31475 34891 ft 575 kts 63°
2026-04-12 19:49 55.71565 178.44691 34893 ft 575 kts 64°
2026-04-12 19:50 55.74485 178.57885 34898 ft 575 kts 64°
2026-04-12 19:50 55.77376 178.71092 34899 ft 574 kts 64°
2026-04-12 19:51 55.80248 178.84310 34903 ft 574 kts 64°
2026-04-12 19:51 55.83100 178.97528 34906 ft 573 kts 64°
2026-04-12 19:52 55.86056 179.10649 34909 ft 572 kts 63°
2026-04-12 19:52 55.88958 179.23825 34912 ft 572 kts 64°
2026-04-12 19:53 55.91837 179.37129 34871 ft 573 kts 64°
2026-04-12 19:53 55.94674 179.50374 34871 ft 573 kts 64°
2026-04-12 19:54 55.97500 179.63666 34874 ft 574 kts 64°
2026-04-12 19:54 56.00311 179.76978 34875 ft 574 kts 64°
2026-04-12 19:55 56.03111 179.90326 34877 ft 575 kts 64°
2026-04-12 19:55 56.05901 -179.96284 34904 ft 576 kts 64°
2026-04-12 19:56 56.08680 -179.82856 34986 ft 575 kts 64°
2026-04-12 19:56 56.11452 -179.69372 35128 ft 574 kts 64°
2026-04-12 19:57 56.14189 -179.55970 35264 ft 574 kts 64°
2026-04-12 19:57 56.16915 -179.42528 35289 ft 573 kts 64°
2026-04-12 19:58 56.19618 -179.29112 35289 ft 573 kts 64°
2026-04-12 19:58 56.22313 -179.15645 35289 ft 573 kts 64°
2026-04-12 19:59 56.25007 -179.02087 35288 ft 573 kts 64°
2026-04-12 19:59 56.27668 -178.88602 35289 ft 573 kts 64°
2026-04-12 20:00 56.30316 -178.75095 35288 ft 573 kts 64°
2026-04-12 20:00 56.32946 -178.61582 35288 ft 573 kts 64°
2026-04-12 20:01 56.35563 -178.48043 35287 ft 573 kts 64°
2026-04-12 20:01 56.38168 -178.34470 35287 ft 573 kts 64°
2026-04-12 20:02 56.40753 -178.20906 35287 ft 573 kts 65°
2026-04-12 20:02 56.43344 -178.07216 35287 ft 573 kts 65°
2026-04-12 20:03 56.45900 -177.93606 35286 ft 573 kts 65°
2026-04-12 20:03 56.48442 -177.79982 35286 ft 572 kts 65°
2026-04-12 20:04 56.50964 -177.66360 35285 ft 571 kts 65°
2026-04-12 20:04 56.53471 -177.52725 35285 ft 571 kts 65°
2026-04-12 20:05 56.55958 -177.39098 35285 ft 571 kts 65°
2026-04-12 20:05 56.58432 -177.25447 35278 ft 570 kts 65°
2026-04-12 20:06 56.60903 -177.11704 35272 ft 570 kts 65°
2026-04-12 20:06 56.63342 -176.98043 35271 ft 569 kts 65°
2026-04-12 20:07 56.65763 -176.84380 35270 ft 569 kts 65°
2026-04-12 20:07 56.68169 -176.70704 35270 ft 568 kts 65°
2026-04-12 20:08 56.70555 -176.57034 35287 ft 567 kts 65°
2026-04-12 20:08 56.72929 -176.43353 35289 ft 568 kts 65°
2026-04-12 20:09 56.75368 -176.29589 35288 ft 568 kts 65°
2026-04-12 20:09 56.77686 -176.15847 35288 ft 567 kts 66°
2026-04-12 20:10 56.79981 -176.02109 35293 ft 567 kts 66°
2026-04-12 20:10 56.82321 -175.88402 35299 ft 563 kts 63°
2026-04-12 20:11 56.85292 -175.75291 35298 ft 557 kts 58°
2026-04-12 20:11 56.88475 -175.62451 35297 ft 555 kts 58°
2026-04-12 20:12 56.91613 -175.49439 35296 ft 557 kts 58°
2026-04-12 20:12 56.94701 -175.36452 35294 ft 557 kts 59°
2026-04-12 20:13 56.97825 -175.23510 35293 ft 555 kts 58°
2026-04-12 20:14 57.02508 -175.04112 35281 ft 556 kts 59°
2026-04-12 20:14 57.05573 -174.91121 35266 ft 555 kts 59°
2026-04-12 20:15 57.08620 -174.78101 35265 ft 555 kts 59°
2026-04-12 20:15 57.11670 -174.64981 35264 ft 555 kts 59°
2026-04-12 20:16 57.14686 -174.51925 35258 ft 555 kts 59°
2026-04-12 20:16 57.17686 -174.38859 35254 ft 555 kts 60°
2026-04-12 20:17 57.20673 -174.25771 35255 ft 555 kts 60°
2026-04-12 20:17 57.23709 -174.12716 35251 ft 555 kts 60°
2026-04-12 20:18 57.26664 -173.99538 35251 ft 556 kts 60°
2026-04-12 20:18 57.29587 -173.86343 35251 ft 555 kts 61°
2026-04-12 20:19 57.32524 -173.73057 35251 ft 555 kts 61°
2026-04-12 20:19 57.35471 -173.59862 35250 ft 555 kts 60°
2026-04-12 20:20 57.38437 -173.46687 35249 ft 554 kts 61°
2026-04-12 20:20 57.41370 -173.33500 35250 ft 554 kts 61°
2026-04-12 20:21 57.44286 -173.20285 35250 ft 554 kts 61°
2026-04-12 20:21 57.47198 -173.07055 35226 ft 554 kts 60°
2026-04-12 20:22 57.50214 -172.93882 35225 ft 555 kts 61°
2026-04-12 20:22 57.53177 -172.80557 35227 ft 554 kts 61°
2026-04-12 20:23 57.56081 -172.67296 35229 ft 555 kts 62°
2026-04-12 20:23 57.58973 -172.53970 35230 ft 555 kts 62°
2026-04-12 20:24 57.61852 -172.40617 35232 ft 556 kts 62°
2026-04-12 20:24 57.64715 -172.27244 35232 ft 556 kts 62°
2026-04-12 20:25 57.67564 -172.13848 35232 ft 556 kts 63°
2026-04-12 20:25 57.69941 -172.02604 35234 ft 557 kts 63°
2026-04-12 20:26 57.73249 -171.86854 35236 ft 557 kts 63°
2026-04-12 20:26 57.75591 -171.75629 35236 ft 557 kts 63°
2026-04-12 20:27 57.78392 -171.62121 35244 ft 557 kts 63°
2026-04-12 20:27 57.81197 -171.48504 35245 ft 557 kts 63°
2026-04-12 20:28 57.83971 -171.34947 35245 ft 557 kts 63°
2026-04-12 20:28 57.86790 -171.21456 35245 ft 556 kts 63°
2026-04-12 20:29 57.89513 -171.07878 35246 ft 556 kts 64°
2026-04-12 20:29 57.92209 -170.94263 35246 ft 556 kts 64°
2026-04-12 20:30 57.94903 -170.80638 35246 ft 557 kts 64°
2026-04-12 20:30 57.97680 -170.67051 35245 ft 556 kts 62°
2026-04-12 20:31 58.00614 -170.53463 35237 ft 557 kts 63°
2026-04-12 20:31 58.03483 -170.39907 35235 ft 558 kts 63°
2026-04-12 20:32 58.06325 -170.26310 35233 ft 558 kts 63°
2026-04-12 20:32 58.09173 -170.12682 35236 ft 558 kts 62°
2026-04-12 20:33 58.12117 -169.99140 35236 ft 558 kts 62°
2026-04-12 20:33 58.14986 -169.85524 35234 ft 558 kts 63°
2026-04-12 20:34 58.17819 -169.71867 35233 ft 558 kts 63°
2026-04-12 20:34 58.20631 -169.58181 35228 ft 558 kts 63°
2026-04-12 20:35 58.23443 -169.44387 35224 ft 558 kts 64°
2026-04-12 20:35 58.26221 -169.30667 35222 ft 557 kts 64°
2026-04-12 20:36 58.28984 -169.16926 35218 ft 557 kts 64°
2026-04-12 20:36 58.31731 -169.03168 35215 ft 558 kts 64°
2026-04-12 20:37 58.34463 -168.89392 35211 ft 557 kts 64°
2026-04-12 20:37 58.37180 -168.75595 35208 ft 557 kts 64°
2026-04-12 20:38 58.39900 -168.61682 35203 ft 558 kts 64°
2026-04-12 20:38 58.42598 -168.47786 35200 ft 560 kts 64°
2026-04-12 20:39 58.45283 -168.33861 35195 ft 560 kts 64°
2026-04-12 20:39 58.47956 -168.19893 35182 ft 561 kts 65°
2026-04-12 20:40 58.50611 -168.05923 35176 ft 560 kts 65°
2026-04-12 20:40 58.53253 -167.91919 35159 ft 561 kts 65°
2026-04-12 20:41 58.55898 -167.77794 35154 ft 561 kts 65°
2026-04-12 20:41 58.58508 -167.63758 35147 ft 559 kts 65°
2026-04-12 20:42 58.61154 -167.49763 35140 ft 559 kts 65°
2026-04-12 20:42 58.63733 -167.35732 35135 ft 559 kts 66°
2026-04-12 20:43 58.66260 -167.21643 35127 ft 558 kts 66°
2026-04-12 20:43 58.68776 -167.07558 35122 ft 559 kts 66°
2026-04-12 20:44 58.71299 -166.93462 35115 ft 557 kts 66°
2026-04-12 20:44 58.73820 -166.79446 35109 ft 553 kts 66°
2026-04-12 20:45 58.76325 -166.65366 35077 ft 554 kts 66°
2026-04-12 20:45 58.78826 -166.51353 35071 ft 554 kts 65°
2026-04-12 20:46 58.81435 -166.37388 35066 ft 555 kts 66°
2026-04-12 20:46 58.83884 -166.23287 35064 ft 555 kts 66°
2026-04-12 20:47 58.86314 -166.09174 35047 ft 555 kts 66°
2026-04-12 20:47 58.88760 -165.94964 35034 ft 554 kts 67°
2026-04-12 20:48 58.91177 -165.80867 35032 ft 553 kts 67°
2026-04-12 20:48 58.93563 -165.66758 35031 ft 552 kts 67°
2026-04-12 20:49 58.95926 -165.52628 35030 ft 552 kts 67°
2026-04-12 20:49 58.98269 -165.38481 35028 ft 552 kts 68°
2026-04-12 20:50 59.00655 -165.24385 35028 ft 550 kts 66°
2026-04-12 20:50 59.03088 -165.10327 35014 ft 550 kts 67°
2026-04-12 20:51 59.05459 -164.96135 35011 ft 550 kts 67°
2026-04-12 20:51 59.07786 -164.81985 35010 ft 550 kts 68°
2026-04-12 20:52 59.10091 -164.67824 35006 ft 550 kts 68°
2026-04-12 20:52 59.12375 -164.53668 35005 ft 549 kts 68°
2026-04-12 20:53 59.14640 -164.39511 35005 ft 548 kts 68°
2026-04-12 20:53 59.16884 -164.25368 35006 ft 547 kts 68°
2026-04-12 20:54 59.19128 -164.11115 35005 ft 547 kts 69°
2026-04-12 20:54 59.21339 -163.96947 35006 ft 546 kts 69°
2026-04-12 20:55 59.23532 -163.82783 35006 ft 545 kts 69°
2026-04-12 20:55 59.25703 -163.68643 35007 ft 545 kts 69°
2026-04-12 20:56 59.27862 -163.54463 35008 ft 545 kts 69°
2026-04-12 20:56 59.30006 -163.40262 35010 ft 545 kts 69°
2026-04-12 20:57 59.32136 -163.26038 35011 ft 545 kts 70°
2026-04-12 20:57 59.34266 -163.11687 35014 ft 546 kts 70°
2026-04-12 20:58 59.36364 -162.97429 35016 ft 545 kts 70°
2026-04-12 20:58 59.38514 -162.83209 35018 ft 545 kts 70°
2026-04-12 20:59 59.40575 -162.68926 35026 ft 545 kts 70°
2026-04-12 20:59 59.42593 -162.54602 35031 ft 544 kts 71°
2026-04-12 21:00 59.44599 -162.40300 35035 ft 544 kts 71°
2026-04-12 21:00 59.46695 -162.25967 35038 ft 542 kts 69°
2026-04-12 21:01 59.49070 -162.11942 35040 ft 540 kts 68°
2026-04-12 21:01 59.51409 -161.97931 35044 ft 539 kts 68°
2026-04-12 21:02 59.53702 -161.83910 35044 ft 538 kts 69°
2026-04-12 21:02 59.55967 -161.69860 35035 ft 539 kts 69°
2026-04-12 21:03 59.58337 -161.55866 35032 ft 539 kts 68°
2026-04-12 21:03 59.60693 -161.41817 35029 ft 540 kts 68°
2026-04-12 21:04 59.63002 -161.27642 35026 ft 540 kts 69°
2026-04-12 21:04 59.65271 -161.13499 35024 ft 540 kts 69°
2026-04-12 21:05 59.67517 -160.99353 35021 ft 540 kts 69°
2026-04-12 21:05 59.69743 -160.85207 35019 ft 539 kts 69°
2026-04-12 21:06 59.71953 -160.71042 35017 ft 538 kts 69°
2026-04-12 21:06 59.74158 -160.56796 35016 ft 538 kts 70°
2026-04-12 21:07 59.76328 -160.42651 35014 ft 536 kts 70°
2026-04-12 21:07 59.78479 -160.28519 35002 ft 535 kts 70°
2026-04-12 21:08 59.80606 -160.14422 34999 ft 534 kts 70°
2026-04-12 21:08 59.82724 -160.00273 34998 ft 534 kts 70°
2026-04-12 21:09 59.84822 -159.86133 34997 ft 534 kts 71°
2026-04-12 21:09 59.86904 -159.71982 34995 ft 534 kts 71°
2026-04-12 21:10 59.88987 -159.57697 34994 ft 535 kts 71°
2026-04-12 21:10 59.91044 -159.43478 34993 ft 535 kts 71°
2026-04-12 21:11 59.93085 -159.29235 34992 ft 536 kts 71°
2026-04-12 21:11 59.95116 -159.14944 34990 ft 536 kts 71°
2026-04-12 21:12 59.97130 -159.00645 34984 ft 536 kts 71°
2026-04-12 21:12 59.99126 -158.86346 34975 ft 535 kts 71°
2026-04-12 21:13 60.01102 -158.72072 34976 ft 530 kts 72°
2026-04-12 21:13 60.03057 -158.57810 34974 ft 529 kts 72°
2026-04-12 21:14 60.04987 -158.43601 34963 ft 530 kts 72°
2026-04-12 21:14 60.06902 -158.29378 34959 ft 530 kts 72°
2026-04-12 21:15 60.08805 -158.15113 34959 ft 531 kts 72°
2026-04-12 21:15 60.10694 -158.00827 34959 ft 531 kts 72°
2026-04-12 21:16 60.12567 -157.86521 34958 ft 531 kts 73°
2026-04-12 21:16 60.14425 -157.72203 34958 ft 531 kts 73°
2026-04-12 21:17 60.16276 -157.57792 34957 ft 530 kts 73°
2026-04-12 21:17 60.18097 -157.43491 34957 ft 529 kts 73°
2026-04-12 21:18 60.19899 -157.29193 34954 ft 528 kts 73°
2026-04-12 21:18 60.21684 -157.14893 34948 ft 527 kts 73°
2026-04-12 21:19 60.23452 -157.00594 34916 ft 527 kts 74°
2026-04-12 21:19 60.25204 -156.86288 34912 ft 527 kts 74°
2026-04-12 21:20 60.26658 -156.74301 34908 ft 527 kts 74°
2026-04-12 21:20 60.28378 -156.59992 34903 ft 527 kts 74°
2026-04-12 21:21 60.30087 -156.45630 34898 ft 528 kts 74°
2026-04-12 21:21 60.31781 -156.31254 34892 ft 528 kts 75°
2026-04-12 21:22 60.33461 -156.16850 34887 ft 528 kts 75°
2026-04-12 21:22 60.35137 -156.02327 34881 ft 529 kts 75°
2026-04-12 21:23 60.36786 -155.87887 34875 ft 528 kts 75°
2026-04-12 21:23 60.38420 -155.73436 34858 ft 528 kts 75°
2026-04-12 21:24 60.40035 -155.58995 34856 ft 527 kts 75°
2026-04-12 21:24 60.41632 -155.44560 34846 ft 526 kts 76°
2026-04-12 21:25 60.43217 -155.30148 34845 ft 525 kts 75°
2026-04-12 21:25 60.44854 -155.15783 34843 ft 524 kts 76°
2026-04-12 21:26 60.46377 -155.01294 34843 ft 523 kts 76°
2026-04-12 21:26 60.48614 -154.79677 34822 ft 523 kts 77°
2026-04-12 21:27 60.50131 -154.65272 34817 ft 523 kts 75°
2026-04-12 21:27 60.51998 -154.51053 34816 ft 522 kts 73°
2026-04-12 21:28 60.53894 -154.36829 34814 ft 523 kts 73°
2026-04-12 21:28 60.55756 -154.22458 34795 ft 523 kts 73°
2026-04-12 21:29 60.57583 -154.08167 34789 ft 523 kts 74°
2026-04-12 21:29 60.59436 -153.93955 34625 ft 513 kts 72°
2026-04-12 21:30 60.60380 -153.87037 34292 ft 504 kts 73°
2026-04-12 21:30 60.61281 -153.80223 34058 ft 493 kts 73°
2026-04-12 21:30 60.62142 -153.73551 33768 ft 484 kts 73°
2026-04-12 21:30 60.62981 -153.66973 33454 ft 476 kts 74°
2026-04-12 21:31 60.63801 -153.60487 33001 ft 472 kts 74°
2026-04-12 21:31 60.64609 -153.54061 32596 ft 466 kts 74°
2026-04-12 21:31 60.65403 -153.47708 32171 ft 461 kts 74°
2026-04-12 21:31 60.66187 -153.41412 31741 ft 456 kts 74°
2026-04-12 21:32 60.67017 -153.35126 31330 ft 451 kts 73°
2026-04-12 21:32 60.67809 -153.28983 30879 ft 447 kts 74°
2026-04-12 21:32 60.68559 -153.22887 30497 ft 441 kts 75°
2026-04-12 21:32 60.69284 -153.16864 30104 ft 436 kts 75°
2026-04-12 21:33 60.69995 -153.10905 29672 ft 431 kts 75°
2026-04-12 21:33 60.70697 -153.05000 29282 ft 426 kts 76°
2026-04-12 21:33 60.71389 -152.99158 28876 ft 421 kts 76°
2026-04-12 21:33 60.72071 -152.93383 28464 ft 417 kts 76°
2026-04-12 21:34 60.72747 -152.87662 28067 ft 412 kts 76°
2026-04-12 21:34 60.73416 -152.82019 27694 ft 407 kts 76°
2026-04-12 21:34 60.74074 -152.76437 27268 ft 403 kts 76°
2026-04-12 21:34 60.74758 -152.70919 26862 ft 398 kts 76°
2026-04-12 21:35 60.75436 -152.65466 26435 ft 395 kts 76°
2026-04-12 21:35 60.76080 -152.60047 26037 ft 390 kts 77°
2026-04-12 21:35 60.76708 -152.54624 25680 ft 385 kts 77°
2026-04-12 21:35 60.77313 -152.49338 25308 ft 380 kts 78°
2026-04-12 21:36 60.77908 -152.44117 24899 ft 376 kts 78°
2026-04-12 21:36 60.78494 -152.38946 24511 ft 371 kts 78°
2026-04-12 21:36 60.79074 -152.33831 24122 ft 367 kts 78°
2026-04-12 21:36 60.79645 -152.28778 23731 ft 363 kts 78°
2026-04-12 21:37 60.80213 -152.23764 23265 ft 361 kts 78°
2026-04-12 21:37 60.80778 -152.18776 22796 ft 359 kts 78°
2026-04-12 21:37 60.81329 -152.13814 22381 ft 356 kts 79°
2026-04-12 21:37 60.81858 -152.08887 21923 ft 354 kts 78°
2026-04-12 21:38 60.82371 -152.03981 21494 ft 351 kts 79°
2026-04-12 21:38 60.82858 -151.99101 21061 ft 349 kts 79°
2026-04-12 21:38 60.83336 -151.94184 20617 ft 346 kts 80°
2026-04-12 21:38 60.83799 -151.89361 20159 ft 345 kts 79°
2026-04-12 21:39 60.84255 -151.84565 19740 ft 342 kts 80°
2026-04-12 21:39 60.84706 -151.79793 19294 ft 340 kts 79°
2026-04-12 21:39 60.85151 -151.75069 18828 ft 335 kts 79°
2026-04-12 21:39 60.85589 -151.70418 18203 ft 333 kts 79°
2026-04-12 21:40 60.86025 -151.65766 17527 ft 332 kts 79°
2026-04-12 21:40 60.86458 -151.61151 16958 ft 328 kts 79°
2026-04-12 21:40 60.86886 -151.56583 16377 ft 325 kts 79°
2026-04-12 21:40 60.87312 -151.52062 15785 ft 322 kts 79°
2026-04-12 21:41 60.87772 -151.47581 15183 ft 320 kts 75°
2026-04-12 21:41 60.88447 -151.43257 14576 ft 317 kts 70°
2026-04-12 21:41 60.89273 -151.39026 14014 ft 314 kts 67°
2026-04-12 21:41 60.90129 -151.34933 13423 ft 312 kts 66°
2026-04-12 21:42 60.90966 -151.30806 12922 ft 313 kts 67°
2026-04-12 21:42 60.91772 -151.26694 12585 ft 309 kts 68°
2026-04-12 21:42 60.92559 -151.22623 12237 ft 305 kts 68°
2026-04-12 21:42 60.93324 -151.18653 12094 ft 293 kts 68°
2026-04-12 21:43 60.94063 -151.14814 11857 ft 286 kts 68°
2026-04-12 21:43 60.94820 -151.11065 11487 ft 283 kts 62°
2026-04-12 21:43 60.95923 -151.07754 11087 ft 281 kts 50°
2026-04-12 21:43 60.97241 -151.04815 10692 ft 279 kts 44°
2026-04-12 21:44 60.98650 -151.02094 10317 ft 277 kts 41°
2026-04-12 21:44 61.00095 -150.99488 9941 ft 276 kts 40°
2026-04-12 21:44 61.01535 -150.96893 9558 ft 275 kts 40°
2026-04-12 21:44 61.02971 -150.94252 9192 ft 273 kts 40°
2026-04-12 21:45 61.04375 -150.91633 8823 ft 271 kts 40°
2026-04-12 21:45 61.05762 -150.89027 8445 ft 270 kts 40°
2026-04-12 21:45 61.07148 -150.86413 8049 ft 270 kts 40°
2026-04-12 21:45 61.08528 -150.83804 7693 ft 268 kts 40°
2026-04-12 21:46 61.09899 -150.81206 7312 ft 268 kts 40°
2026-04-12 21:46 61.11267 -150.78617 6957 ft 266 kts 40°
2026-04-12 21:46 61.12629 -150.76039 6626 ft 265 kts 40°
2026-04-12 21:46 61.13955 -150.73405 6262 ft 265 kts 47°
2026-04-12 21:47 61.14952 -150.70202 5911 ft 266 kts 60°
2026-04-12 21:47 61.15710 -150.66715 5590 ft 266 kts 65°
2026-04-12 21:47 61.16319 -150.63140 5385 ft 260 kts 70°
2026-04-12 21:47 61.16673 -150.59516 5181 ft 255 kts 80°
2026-04-12 21:48 61.16789 -150.55905 4948 ft 248 kts 86°
2026-04-12 21:48 61.16790 -150.52346 4675 ft 241 kts 88°
2026-04-12 21:48 61.16764 -150.48909 4364 ft 236 kts 89°
2026-04-12 21:48 61.16752 -150.45568 4066 ft 229 kts 88°
2026-04-12 21:49 61.16749 -150.42326 3776 ft 221 kts 88°
2026-04-12 21:49 61.16750 -150.39198 3483 ft 214 kts 88°
2026-04-12 21:49 61.16752 -150.36177 3218 ft 204 kts 88°
2026-04-12 21:49 61.16754 -150.33318 2941 ft 194 kts 88°
2026-04-12 21:50 61.16756 -150.30577 2679 ft 188 kts 88°
2026-04-12 21:50 61.16759 -150.27909 2435 ft 185 kts 89°
2026-04-12 21:50 61.16761 -150.25303 2236 ft 177 kts 89°
2026-04-12 21:50 61.16764 -150.22817 2011 ft 169 kts 89°
2026-04-12 21:51 61.16766 -150.20411 1768 ft 166 kts 89°
2026-04-12 21:51 61.16768 -150.18010 1529 ft 163 kts 89°
2026-04-12 21:51 61.16770 -150.15671 1311 ft 163 kts 89°
2026-04-12 21:51 61.16772 -150.13332 1094 ft 162 kts 90°
2026-04-12 21:52 61.16774 -150.11012 878 ft 160 kts 90°
2026-04-12 21:52 61.16777 -150.08715 653 ft 160 kts 90°
2026-04-12 21:52 61.16782 -150.06416 435 ft 159 kts 90°
2026-04-12 21:52 61.16785 -150.04134 212 ft 158 kts 90°
2026-04-12 21:53 61.16783 -150.02006 166 ft 125 kts 90°
2026-04-12 21:53 61.16784 -150.00719 165 ft 58 kts 90°
2026-04-12 21:53 61.16785 -150.00187 165 ft 25 kts 90°
2026-04-12 21:53 61.16787 -149.99866 165 ft 20 kts 86°
2026-04-12 21:54 61.16820 -149.99646 165 ft 15 kts 60°
2026-04-12 21:54 61.16873 -149.99466 165 ft 14 kts 52°
2026-04-12 21:54 61.16947 -149.99345 165 ft 13 kts 33°
2026-04-12 21:54 61.17020 -149.99236 165 ft 13 kts 37°
2026-04-12 21:55 61.17088 -149.99128 165 ft 10 kts 37°
2026-04-12 21:55 61.17152 -149.99088 165 ft 10 kts 350°
2026-04-12 21:55 61.17217 -149.99121 165 ft 9 kts 345°
2026-04-12 21:55 61.17279 -149.99159 165 ft 9 kts 342°
2026-04-12 21:56 61.17338 -149.99197 165 ft 9 kts 340°
2026-04-12 21:56 61.17394 -149.99239 165 ft 8 kts 340°
2026-04-12 21:56 61.17446 -149.99279 165 ft 7 kts 340°
2026-04-12 21:56 61.17478 -149.99302 165 ft 4 kts 353°
2026-04-12 21:57 61.17497 -149.99267 165 ft 4 kts 65°
2026-04-12 21:57 61.17506 -149.99218 165 ft 4 kts 70°
2026-04-12 21:57 61.17514 -149.99170 165 ft 3 kts 70°
2026-04-12 21:57 61.17517 -149.99154 165 ft 0 kts 70°